sensor_id;sensor_type;location;lat;lon;timestamp;P1;durP1;ratioP1;P2;durP2;ratioP2
77168;SDS011;66281;45.114;20.730;2023-03-21T00:06:50;20.40;;;14.47;;
77168;SDS011;66281;45.114;20.730;2023-03-21T00:16:50;22.55;;;15.20;;
77168;SDS011;66281;45.114;20.730;2023-03-21T00:26:51;23.17;;;15.40;;
77168;SDS011;66281;45.114;20.730;2023-03-21T00:36:52;24.20;;;14.80;;
77168;SDS011;66281;45.114;20.730;2023-03-21T00:46:52;23.67;;;14.38;;
77168;SDS011;66281;45.114;20.730;2023-03-21T00:56:53;23.55;;;13.35;;
77168;SDS011;66281;45.114;20.730;2023-03-21T01:06:54;21.10;;;13.18;;
77168;SDS011;66281;45.114;20.730;2023-03-21T01:16:54;18.73;;;13.75;;
77168;SDS011;66281;45.114;20.730;2023-03-21T01:26:55;22.60;;;13.87;;
77168;SDS011;66281;45.114;20.730;2023-03-21T01:36:55;20.92;;;14.13;;
77168;SDS011;66281;45.114;20.730;2023-03-21T01:46:56;22.80;;;14.47;;
77168;SDS011;66281;45.114;20.730;2023-03-21T01:57:16;21.27;;;14.30;;
77168;SDS011;66281;45.114;20.730;2023-03-21T02:07:29;21.83;;;14.48;;
77168;SDS011;66281;45.114;20.730;2023-03-21T02:17:58;20.83;;;14.10;;
77168;SDS011;66281;45.114;20.730;2023-03-21T02:39:13;18.73;;;13.63;;
77168;SDS011;66281;45.114;20.730;2023-03-21T02:59:29;26.55;;;15.52;;
77168;SDS011;66281;45.114;20.730;2023-03-21T03:20:14;22.93;;;14.93;;
77168;SDS011;66281;45.114;20.730;2023-03-21T03:30:20;26.38;;;15.77;;
77168;SDS011;66281;45.114;20.730;2023-03-21T03:50:55;22.07;;;14.13;;
77168;SDS011;66281;45.114;20.730;2023-03-21T04:01:10;23.00;;;15.25;;
77168;SDS011;66281;45.114;20.730;2023-03-21T04:11:14;23.53;;;15.27;;
77168;SDS011;66281;45.114;20.730;2023-03-21T04:21:19;30.87;;;17.83;;
77168;SDS011;66281;45.114;20.730;2023-03-21T04:31:19;23.55;;;15.30;;
77168;SDS011;66281;45.114;20.730;2023-03-21T04:41:24;25.83;;;15.00;;
77168;SDS011;66281;45.114;20.730;2023-03-21T04:51:26;24.60;;;15.40;;
77168;SDS011;66281;45.114;20.730;2023-03-21T05:01:28;22.23;;;14.77;;
77168;SDS011;66281;45.114;20.730;2023-03-21T05:11:28;21.50;;;14.73;;
77168;SDS011;66281;45.114;20.730;2023-03-21T05:21:30;30.03;;;18.30;;
77168;SDS011;66281;45.114;20.730;2023-03-21T05:31:32;33.37;;;19.97;;
77168;SDS011;66281;45.114;20.730;2023-03-21T05:41:40;29.08;;;18.35;;
77168;SDS011;66281;45.114;20.730;2023-03-21T05:51:42;33.30;;;17.90;;
77168;SDS011;66281;45.114;20.730;2023-03-21T06:01:42;27.17;;;18.23;;
77168;SDS011;66281;45.114;20.730;2023-03-21T06:11:49;25.80;;;16.63;;
77168;SDS011;66281;45.114;20.730;2023-03-21T06:22:14;34.23;;;18.57;;
77168;SDS011;66281;45.114;20.730;2023-03-21T06:32:15;28.57;;;18.40;;
77168;SDS011;66281;45.114;20.730;2023-03-21T06:42:17;27.23;;;19.50;;
77168;SDS011;66281;45.114;20.730;2023-03-21T06:52:18;31.93;;;19.87;;
77168;SDS011;66281;45.114;20.730;2023-03-21T07:02:19;29.97;;;18.73;;
77168;SDS011;66281;45.114;20.730;2023-03-21T07:12:29;23.48;;;17.00;;
77168;SDS011;66281;45.114;20.730;2023-03-21T07:22:56;25.33;;;16.57;;
77168;SDS011;66281;45.114;20.730;2023-03-21T07:33:00;27.87;;;16.47;;
77168;SDS011;66281;45.114;20.730;2023-03-21T07:43:01;20.17;;;14.53;;
77168;SDS011;66281;45.114;20.730;2023-03-21T07:53:04;22.90;;;15.23;;
77168;SDS011;66281;45.114;20.730;2023-03-21T08:03:04;25.95;;;13.63;;
77168;SDS011;66281;45.114;20.730;2023-03-21T08:13:05;19.55;;;13.98;;
77168;SDS011;66281;45.114;20.730;2023-03-21T08:23:05;28.25;;;17.95;;
77168;SDS011;66281;45.114;20.730;2023-03-21T08:33:06;39.77;;;19.73;;
77168;SDS011;66281;45.114;20.730;2023-03-21T08:43:06;24.85;;;16.17;;
77168;SDS011;66281;45.114;20.730;2023-03-21T08:53:07;21.53;;;14.47;;
77168;SDS011;66281;45.114;20.730;2023-03-21T09:03:08;15.60;;;11.43;;
77168;SDS011;66281;45.114;20.730;2023-03-21T09:13:08;16.13;;;13.00;;
77168;SDS011;66281;45.114;20.730;2023-03-21T09:23:11;25.63;;;13.30;;
77168;SDS011;66281;45.114;20.730;2023-03-21T09:33:12;16.47;;;11.07;;
77168;SDS011;66281;45.114;20.730;2023-03-21T09:53:36;17.97;;;11.67;;
77168;SDS011;66281;45.114;20.730;2023-03-21T10:03:38;39.10;;;13.10;;
77168;SDS011;66281;45.114;20.730;2023-03-21T10:13:49;16.47;;;11.03;;
77168;SDS011;66281;45.114;20.730;2023-03-21T10:24:13;12.67;;;9.87;;
77168;SDS011;66281;45.114;20.730;2023-03-21T10:44:22;16.67;;;10.52;;
77168;SDS011;66281;45.114;20.730;2023-03-21T10:54:30;11.37;;;10.03;;
77168;SDS011;66281;45.114;20.730;2023-03-21T11:04:31;12.45;;;9.45;;
77168;SDS011;66281;45.114;20.730;2023-03-21T11:14:36;19.97;;;13.10;;
77168;SDS011;66281;45.114;20.730;2023-03-21T11:24:37;16.87;;;9.33;;
77168;SDS011;66281;45.114;20.730;2023-03-21T11:34:45;12.40;;;8.07;;
77168;SDS011;66281;45.114;20.730;2023-03-21T11:44:47;10.93;;;8.43;;
77168;SDS011;66281;45.114;20.730;2023-03-21T11:54:53;12.07;;;7.97;;
77168;SDS011;66281;45.114;20.730;2023-03-21T12:05:16;10.18;;;7.70;;
77168;SDS011;66281;45.114;20.730;2023-03-21T12:15:27;8.90;;;7.07;;
77168;SDS011;66281;45.114;20.730;2023-03-21T12:25:32;9.87;;;5.70;;
77168;SDS011;66281;45.114;20.730;2023-03-21T12:45:51;5.20;;;3.67;;
77168;SDS011;66281;45.114;20.730;2023-03-21T12:55:55;6.15;;;4.22;;
77168;SDS011;66281;45.114;20.730;2023-03-21T13:16:04;8.10;;;4.03;;
77168;SDS011;66281;45.114;20.730;2023-03-21T13:26:08;4.35;;;3.30;;
77168;SDS011;66281;45.114;20.730;2023-03-21T13:36:14;6.20;;;5.30;;
77168;SDS011;66281;45.114;20.730;2023-03-21T13:56:26;7.30;;;4.30;;
77168;SDS011;66281;45.114;20.730;2023-03-21T14:06:31;4.60;;;3.73;;
77168;SDS011;66281;45.114;20.730;2023-03-21T14:16:36;6.20;;;4.10;;
77168;SDS011;66281;45.114;20.730;2023-03-21T14:26:41;7.53;;;4.13;;
77168;SDS011;66281;45.114;20.730;2023-03-21T14:36:44;4.10;;;2.83;;
77168;SDS011;66281;45.114;20.730;2023-03-21T14:46:45;8.50;;;4.20;;
77168;SDS011;66281;45.114;20.730;2023-03-21T14:56:47;15.17;;;6.93;;
77168;SDS011;66281;45.114;20.730;2023-03-21T15:06:54;56.13;;;15.10;;
77168;SDS011;66281;45.114;20.730;2023-03-21T15:16:56;13.27;;;7.47;;
77168;SDS011;66281;45.114;20.730;2023-03-21T15:27:00;22.77;;;6.83;;
77168;SDS011;66281;45.114;20.730;2023-03-21T15:37:05;19.57;;;8.60;;
77168;SDS011;66281;45.114;20.730;2023-03-21T15:47:13;15.90;;;8.43;;
77168;SDS011;66281;45.114;20.730;2023-03-21T15:57:18;26.30;;;13.90;;
77168;SDS011;66281;45.114;20.730;2023-03-21T16:07:22;56.72;;;24.45;;
77168;SDS011;66281;45.114;20.730;2023-03-21T16:17:46;63.00;;;31.23;;
77168;SDS011;66281;45.114;20.730;2023-03-21T16:27:56;47.83;;;23.17;;
77168;SDS011;66281;45.114;20.730;2023-03-21T16:37:56;41.87;;;26.13;;
77168;SDS011;66281;45.114;20.730;2023-03-21T16:47:58;38.23;;;21.33;;
77168;SDS011;66281;45.114;20.730;2023-03-21T16:57:58;41.27;;;21.27;;
77168;SDS011;66281;45.114;20.730;2023-03-21T17:07:59;31.07;;;17.90;;
77168;SDS011;66281;45.114;20.730;2023-03-21T17:18:00;38.63;;;19.57;;
77168;SDS011;66281;45.114;20.730;2023-03-21T17:28:00;65.57;;;30.10;;
77168;SDS011;66281;45.114;20.730;2023-03-21T17:38:02;123.18;;;57.58;;
77168;SDS011;66281;45.114;20.730;2023-03-21T17:48:04;92.80;;;45.13;;
77168;SDS011;66281;45.114;20.730;2023-03-21T17:58:06;75.67;;;39.97;;
77168;SDS011;66281;45.114;20.730;2023-03-21T18:08:06;133.73;;;63.77;;
77168;SDS011;66281;45.114;20.730;2023-03-21T18:18:10;110.95;;;58.78;;
77168;SDS011;66281;45.114;20.730;2023-03-21T18:28:11;135.85;;;63.65;;
77168;SDS011;66281;45.114;20.730;2023-03-21T18:38:11;136.90;;;67.37;;
77168;SDS011;66281;45.114;20.730;2023-03-21T18:48:11;135.15;;;75.22;;
77168;SDS011;66281;45.114;20.730;2023-03-21T18:58:12;136.77;;;68.82;;
77168;SDS011;66281;45.114;20.730;2023-03-21T19:08:12;130.95;;;56.08;;
77168;SDS011;66281;45.114;20.730;2023-03-21T19:18:13;51.50;;;26.08;;
77168;SDS011;66281;45.114;20.730;2023-03-21T19:28:13;47.53;;;23.80;;
77168;SDS011;66281;45.114;20.730;2023-03-21T19:38:14;25.73;;;14.73;;
77168;SDS011;66281;45.114;20.730;2023-03-21T19:48:15;20.47;;;11.70;;
77168;SDS011;66281;45.114;20.730;2023-03-21T19:58:15;22.27;;;12.60;;
77168;SDS011;66281;45.114;20.730;2023-03-21T20:08:18;36.20;;;19.93;;
77168;SDS011;66281;45.114;20.730;2023-03-21T20:18:19;45.90;;;19.77;;
77168;SDS011;66281;45.114;20.730;2023-03-21T20:28:20;37.97;;;16.70;;
77168;SDS011;66281;45.114;20.730;2023-03-21T20:38:21;41.85;;;18.77;;
77168;SDS011;66281;45.114;20.730;2023-03-21T20:48:21;45.05;;;20.58;;
77168;SDS011;66281;45.114;20.730;2023-03-21T20:58:22;47.78;;;20.38;;
77168;SDS011;66281;45.114;20.730;2023-03-21T21:08:22;30.30;;;15.33;;
77168;SDS011;66281;45.114;20.730;2023-03-21T21:18:23;58.83;;;27.90;;
77168;SDS011;66281;45.114;20.730;2023-03-21T21:28:23;28.70;;;12.70;;
77168;SDS011;66281;45.114;20.730;2023-03-21T21:38:24;18.60;;;9.60;;
77168;SDS011;66281;45.114;20.730;2023-03-21T21:48:25;12.73;;;7.67;;
77168;SDS011;66281;45.114;20.730;2023-03-21T21:58:25;15.60;;;8.18;;
77168;SDS011;66281;45.114;20.730;2023-03-21T22:08:26;19.30;;;10.77;;
77168;SDS011;66281;45.114;20.730;2023-03-21T22:18:26;16.38;;;9.15;;
77168;SDS011;66281;45.114;20.730;2023-03-21T22:28:27;22.88;;;11.25;;
77168;SDS011;66281;45.114;20.730;2023-03-21T22:38:27;23.27;;;10.23;;
77168;SDS011;66281;45.114;20.730;2023-03-21T22:48:28;22.97;;;11.53;;
77168;SDS011;66281;45.114;20.730;2023-03-21T22:58:29;17.55;;;9.30;;
77168;SDS011;66281;45.114;20.730;2023-03-21T23:08:29;23.25;;;11.77;;
77168;SDS011;66281;45.114;20.730;2023-03-21T23:18:30;18.88;;;9.48;;
77168;SDS011;66281;45.114;20.730;2023-03-21T23:28:30;21.83;;;11.70;;
77168;SDS011;66281;45.114;20.730;2023-03-21T23:38:31;20.70;;;10.27;;
77168;SDS011;66281;45.114;20.730;2023-03-21T23:48:31;16.15;;;8.70;;
77168;SDS011;66281;45.114;20.730;2023-03-21T23:58:32;17.90;;;9.23;;
